createdAt,value
2023-05-19T00:01:23.906Z,7
2023-05-19T00:11:27.143Z,7
2023-05-19T00:21:33.760Z,7
2023-05-19T00:31:40.457Z,7
2023-05-19T00:41:47.564Z,8
2023-05-19T00:51:54.107Z,7
2023-05-19T01:02:00.012Z,6
2023-05-19T01:12:05.615Z,8
2023-05-19T01:22:11.958Z,11
2023-05-19T01:32:18.712Z,9
2023-05-19T01:42:25.772Z,9
2023-05-19T01:52:31.468Z,11
2023-05-19T02:02:37.424Z,16
2023-05-19T02:12:42.781Z,33
2023-05-19T02:22:48.796Z,34
2023-05-19T02:32:56.527Z,9
2023-05-19T02:43:00.970Z,12
2023-05-19T02:53:10.007Z,8
2023-05-19T03:03:17.302Z,9
2023-05-19T03:13:21.402Z,10
2023-05-19T03:23:27.363Z,10
2023-05-19T03:33:35.750Z,13
2023-05-19T03:43:41.388Z,11
2023-05-19T03:53:48.289Z,12
2023-05-19T04:03:55.127Z,11
2023-05-19T04:14:00.638Z,11
2023-05-19T04:24:07.511Z,13
2023-05-19T04:34:14.581Z,13
2023-05-19T04:44:22.038Z,12
2023-05-19T04:54:27.581Z,16
2023-05-19T05:04:33.504Z,16
2023-05-19T05:14:38.969Z,14
2023-05-19T05:24:44.656Z,13
2023-05-19T05:34:50.207Z,15
2023-05-19T05:44:58.763Z,16
2023-05-19T05:55:04.323Z,12
2023-05-19T06:05:09.048Z,14
2023-05-19T06:15:16.556Z,12
2023-05-19T06:25:21.172Z,13
2023-05-19T06:35:27.732Z,11
2023-05-19T06:45:33.273Z,11
2023-05-19T06:55:50.635Z,12
2023-05-19T07:05:52.095Z,11
2023-05-19T07:15:57.772Z,11
2023-05-19T07:26:03.081Z,11
2023-05-19T07:36:09.314Z,13
2023-05-19T07:46:14.986Z,13
2023-05-19T07:56:19.984Z,11
2023-05-19T08:06:26.045Z,13
2023-05-19T08:16:32.513Z,10
2023-05-19T08:26:39.706Z,10
2023-05-19T08:36:46.247Z,10
2023-05-19T08:46:52.936Z,10
2023-05-19T08:56:59.260Z,14
2023-05-19T09:07:05.881Z,12
2023-05-19T09:17:14.688Z,14
2023-05-19T09:27:18.131Z,14
2023-05-19T09:37:24.430Z,11
2023-05-19T09:47:29.989Z,9
2023-05-19T09:57:39.114Z,12
2023-05-19T10:07:42.452Z,10
2023-05-19T10:17:49.229Z,9
2023-05-19T10:27:53.781Z,10
2023-05-19T10:38:00.229Z,10
2023-05-19T10:48:04.690Z,10
2023-05-19T10:58:09.492Z,10
2023-05-19T11:08:15.672Z,11
2023-05-19T11:18:22.009Z,8
2023-05-19T11:28:28.938Z,9
2023-05-19T11:38:35.105Z,9
2023-05-19T11:48:49.533Z,9
2023-05-19T11:58:51.769Z,17
2023-05-19T12:08:54.299Z,8
2023-05-19T12:19:01.535Z,12
2023-05-19T12:29:08.695Z,11
2023-05-19T12:39:14.793Z,8
2023-05-19T12:49:19.445Z,9
2023-05-19T12:59:30.891Z,12
2023-05-19T13:09:31.598Z,7
2023-05-19T13:19:55.334Z,9
2023-05-19T13:29:49.627Z,10
2023-05-19T13:39:57.452Z,11
2023-05-19T13:50:03.929Z,11
2023-05-19T14:00:19.650Z,11
2023-05-19T14:10:16.484Z,11
2023-05-19T14:20:40.655Z,10
2023-05-19T14:30:48.469Z,12
2023-05-19T14:40:54.797Z,14
2023-05-19T14:50:59.981Z,12
2023-05-19T15:01:07.722Z,13
2023-05-19T15:11:14.764Z,14
2023-05-19T15:21:21.401Z,15
2023-05-19T15:31:29.016Z,15
2023-05-19T15:41:35.453Z,15
2023-05-19T15:51:42.006Z,15
2023-05-19T16:01:52.095Z,20
2023-05-19T16:11:56.255Z,15
2023-05-19T16:22:03.399Z,16
2023-05-19T16:32:08.481Z,18
2023-05-19T16:42:15.398Z,21
2023-05-19T16:52:24.008Z,20
2023-05-19T17:02:29.019Z,18
2023-05-19T17:12:34.006Z,17
2023-05-19T17:22:41.661Z,17
2023-05-19T17:32:48.548Z,16
2023-05-19T17:42:55.061Z,17
2023-05-19T17:53:01.433Z,16
2023-05-19T18:03:08.521Z,17
2023-05-19T18:13:13.914Z,16
2023-05-19T18:23:22.385Z,17
2023-05-19T18:33:30.738Z,19
2023-05-19T18:43:34.886Z,20
2023-05-19T18:53:40.398Z,20
2023-05-19T19:03:47.616Z,19
2023-05-19T19:13:54.292Z,17
2023-05-19T19:24:01.337Z,20
2023-05-19T19:34:06.708Z,19
2023-05-19T19:44:13.872Z,18
2023-05-19T19:54:20.183Z,19
2023-05-19T20:04:26.455Z,16
2023-05-19T20:14:32.330Z,22
2023-05-19T20:24:39.361Z,18
2023-05-19T20:34:49.103Z,20
2023-05-19T20:44:53.136Z,23
2023-05-19T20:55:00.372Z,17
2023-05-19T21:05:06.436Z,17
2023-05-19T21:15:11.825Z,21
2023-05-19T21:25:16.741Z,15
2023-05-19T21:35:23.027Z,16
2023-05-19T21:45:30.446Z,18
2023-05-19T21:55:37.020Z,17
2023-05-19T22:05:44.491Z,18
2023-05-19T22:15:50.382Z,17
2023-05-19T22:25:55.871Z,17
2023-05-19T22:36:02.995Z,18
2023-05-19T22:46:08.603Z,16
2023-05-19T22:56:14.035Z,18
2023-05-19T23:06:21.176Z,19
2023-05-19T23:16:26.939Z,21
2023-05-19T23:26:33.118Z,21
2023-05-19T23:36:41.114Z,20
2023-05-19T23:46:47.392Z,19
2023-05-19T23:56:51.187Z,19
